createdAt,value
2022-10-08T00:01:23.700Z,144.30
2022-10-08T00:03:53.229Z,144.40
2022-10-08T00:06:22.407Z,144.53
2022-10-08T00:08:52.156Z,143.90
2022-10-08T00:11:22.460Z,143.57
2022-10-08T00:13:51.346Z,143.57
2022-10-08T00:16:22.573Z,143.93
2022-10-08T00:18:52.141Z,144.47
2022-10-08T00:21:21.843Z,143.50
2022-10-08T00:23:51.578Z,143.97
2022-10-08T00:26:24.191Z,143.67
2022-10-08T00:28:53.610Z,143.90
2022-10-08T00:31:24.283Z,143.53
2022-10-08T00:33:53.143Z,144.00
2022-10-08T00:36:21.828Z,144.10
2022-10-08T00:38:49.932Z,143.67
2022-10-08T00:41:20.696Z,144.33
2022-10-08T00:43:49.850Z,143.67
2022-10-08T00:46:29.807Z,143.87
2022-10-08T00:49:02.477Z,144.10
2022-10-08T00:51:31.275Z,143.70
2022-10-08T00:53:59.491Z,144.00
2022-10-08T00:56:27.419Z,143.73
2022-10-08T00:58:55.406Z,143.40
2022-10-08T01:01:23.211Z,143.97
2022-10-08T01:03:52.352Z,143.57
2022-10-08T01:06:26.995Z,144.77
2022-10-08T01:09:03.414Z,143.23
2022-10-08T01:11:43.534Z,143.30
2022-10-08T01:14:21.774Z,143.57
2022-10-08T01:16:58.527Z,143.83
2022-10-08T01:19:57.493Z,143.77
2022-10-08T01:22:39.617Z,143.77
2022-10-08T01:25:37.492Z,143.50
2022-10-08T01:28:17.845Z,143.63
2022-10-08T01:30:51.207Z,143.13
2022-10-08T01:33:25.451Z,144.17
2022-10-08T01:35:58.392Z,143.57
2022-10-08T01:38:31.493Z,144.53
2022-10-08T01:41:03.475Z,143.37
2022-10-08T01:43:36.679Z,144.10
2022-10-08T01:46:10.184Z,144.10
2022-10-08T01:48:41.986Z,143.73
2022-10-08T01:51:14.519Z,143.33
2022-10-08T01:53:46.784Z,143.20
2022-10-08T01:56:20.816Z,143.83
2022-10-08T01:58:54.310Z,143.43
2022-10-08T02:01:28.616Z,143.23
2022-10-08T02:04:13.473Z,143.93
2022-10-08T02:06:45.766Z,142.97
2022-10-08T02:09:14.581Z,143.97
2022-10-08T02:11:42.368Z,143.23
2022-10-08T02:14:11.706Z,144.13
2022-10-08T02:16:47.460Z,144.43
2022-10-08T02:19:24.051Z,143.70
2022-10-08T02:21:53.958Z,143.33
2022-10-08T02:24:27.774Z,143.60
2022-10-08T02:26:58.914Z,143.53
2022-10-08T02:29:32.792Z,143.90
2022-10-08T02:32:06.770Z,144.07
2022-10-08T02:34:38.725Z,143.93
2022-10-08T02:37:12.857Z,143.70
2022-10-08T02:39:44.445Z,143.47
2022-10-08T02:42:17.828Z,143.83
2022-10-08T02:44:52.247Z,143.07
2022-10-08T02:47:23.962Z,143.67
2022-10-08T02:49:55.830Z,143.57
2022-10-08T02:52:27.992Z,143.67
2022-10-08T02:54:57.418Z,143.13
2022-10-08T02:57:30.303Z,143.57
2022-10-08T02:59:59.843Z,143.47
2022-10-08T03:02:36.263Z,144.00
2022-10-08T03:05:07.699Z,143.10
2022-10-08T03:07:36.124Z,143.33
2022-10-08T03:10:06.839Z,143.53
2022-10-08T03:12:35.026Z,143.70
2022-10-08T03:15:04.456Z,142.87
2022-10-08T03:17:37.064Z,143.20
2022-10-08T03:20:07.097Z,143.97
2022-10-08T03:22:35.349Z,143.23
2022-10-08T03:25:03.165Z,144.07
2022-10-08T03:27:31.010Z,143.77
2022-10-08T03:29:58.795Z,143.80
2022-10-08T03:32:28.288Z,143.33
2022-10-08T03:34:56.084Z,144.33
2022-10-08T03:37:23.827Z,143.60
2022-10-08T03:39:51.606Z,143.13
2022-10-08T03:42:19.490Z,144.23
2022-10-08T03:44:47.280Z,142.97
2022-10-08T03:47:15.080Z,143.87
2022-10-08T03:49:44.196Z,144.47
2022-10-08T03:52:11.956Z,144.50
2022-10-08T03:54:39.734Z,144.07
2022-10-08T03:57:07.489Z,143.93
2022-10-08T03:59:35.283Z,144.63
2022-10-08T04:02:03.058Z,143.97
2022-10-08T04:04:30.859Z,144.60
2022-10-08T04:06:59.938Z,144.17
2022-10-08T04:09:27.753Z,144.50
2022-10-08T04:11:55.563Z,143.90
2022-10-08T04:14:23.328Z,144.77
2022-10-08T04:16:51.099Z,143.97
2022-10-08T04:19:18.872Z,144.10
2022-10-08T04:21:46.701Z,143.80
2022-10-08T04:24:16.119Z,144.13
2022-10-08T04:26:43.913Z,144.40
2022-10-08T04:29:12.528Z,144.73
2022-10-08T04:31:40.923Z,143.73
2022-10-08T04:34:10.298Z,144.57
2022-10-08T04:36:38.086Z,144.53
2022-10-08T04:39:05.868Z,143.83
2022-10-08T04:41:34.990Z,143.67
2022-10-08T04:44:02.770Z,144.40
2022-10-08T04:46:30.709Z,143.97
2022-10-08T04:48:59.991Z,144.47
2022-10-08T04:51:28.595Z,143.57
2022-10-08T04:53:57.526Z,144.10
2022-10-08T04:56:27.365Z,143.73
2022-10-08T04:58:57.737Z,144.47
2022-10-08T05:01:26.684Z,143.80
2022-10-08T05:03:56.043Z,143.73
2022-10-08T05:06:26.989Z,144.10
2022-10-08T05:08:55.374Z,144.03
2022-10-08T05:11:25.972Z,143.73
2022-10-08T05:13:54.838Z,143.63
2022-10-08T05:16:25.345Z,144.93
2022-10-08T05:18:53.526Z,144.13
2022-10-08T05:21:23.691Z,144.43
2022-10-08T05:23:56.547Z,143.33
2022-10-08T05:26:46.534Z,144.27
2022-10-08T05:29:14.434Z,143.40
2022-10-08T05:31:43.569Z,144.30
2022-10-08T05:34:12.705Z,143.77
2022-10-08T05:36:40.567Z,144.40
2022-10-08T05:39:08.798Z,144.60
2022-10-08T05:41:37.811Z,144.30
2022-10-08T05:44:07.087Z,144.10
2022-10-08T05:46:36.833Z,144.40
2022-10-08T05:49:08.222Z,144.07
2022-10-08T05:51:38.368Z,143.80
2022-10-08T05:54:06.432Z,144.07
2022-10-08T05:56:34.426Z,144.10
2022-10-08T05:59:02.272Z,144.27
2022-10-08T06:01:32.020Z,143.67
2022-10-08T06:04:07.893Z,143.97
2022-10-08T06:06:38.390Z,143.77
2022-10-08T06:09:07.113Z,144.60
2022-10-08T06:11:37.340Z,144.37
2022-10-08T06:14:07.062Z,144.13
2022-10-08T06:16:36.305Z,144.53
2022-10-08T06:19:04.501Z,143.60
2022-10-08T06:21:33.331Z,143.57
2022-10-08T06:24:04.649Z,143.47
2022-10-08T06:26:36.076Z,143.23
2022-10-08T06:29:06.037Z,143.27
2022-10-08T06:31:34.496Z,142.40
2022-10-08T06:34:04.061Z,142.73
2022-10-08T06:36:32.540Z,142.83
2022-10-08T06:39:04.280Z,143.67
2022-10-08T06:41:34.600Z,142.90
2022-10-08T06:44:02.588Z,142.73
2022-10-08T06:46:31.299Z,142.90
2022-10-08T06:49:00.275Z,142.97
2022-10-08T06:51:29.076Z,142.20
2022-10-08T06:54:02.903Z,142.83
2022-10-08T06:56:37.120Z,142.37
2022-10-08T06:59:05.705Z,142.83
2022-10-08T07:01:34.898Z,142.37
2022-10-08T07:04:04.219Z,142.37
2022-10-08T07:06:32.018Z,142.27
2022-10-08T07:09:01.518Z,142.90
2022-10-08T07:11:30.158Z,142.67
2022-10-08T07:13:59.341Z,143.03
2022-10-08T07:16:28.637Z,142.07
2022-10-08T07:18:58.199Z,142.10
2022-10-08T07:21:26.153Z,142.63
2022-10-08T07:23:53.913Z,142.83
2022-10-08T07:26:23.498Z,142.60
2022-10-08T07:28:53.144Z,142.33
2022-10-08T07:31:23.816Z,142.30
2022-10-08T07:33:52.181Z,142.53
2022-10-08T07:36:22.349Z,141.40
2022-10-08T07:38:54.530Z,142.43
2022-10-08T07:41:22.364Z,142.37
2022-10-08T07:43:52.204Z,142.33
2022-10-08T07:46:20.382Z,141.97
2022-10-08T07:48:50.666Z,143.23
2022-10-08T07:51:56.539Z,142.27
2022-10-08T07:54:24.577Z,142.03
2022-10-08T08:00:40.098Z,143.30
2022-10-08T08:03:15.369Z,143.77
2022-10-08T08:05:44.472Z,144.10
2022-10-08T08:08:12.297Z,144.67
2022-10-08T08:10:40.054Z,144.40
2022-10-08T08:13:07.864Z,144.70
2022-10-08T08:15:35.620Z,144.83
2022-10-08T08:18:03.410Z,145.30
2022-10-08T08:20:31.179Z,145.77
2022-10-08T08:23:00.286Z,144.97
2022-10-08T08:25:28.609Z,145.43
2022-10-08T08:27:56.354Z,144.73
2022-10-08T08:30:24.224Z,145.07
2022-10-08T08:32:52.260Z,145.73
2022-10-08T08:35:20.016Z,145.40
2022-10-08T08:37:48.224Z,144.73
2022-10-08T08:40:17.499Z,144.93
2022-10-08T08:42:54.534Z,145.13
2022-10-08T08:45:45.943Z,144.30
2022-10-08T08:48:20.158Z,143.93
2022-10-08T08:50:51.873Z,144.70
2022-10-08T08:53:20.552Z,143.53
2022-10-08T08:55:53.983Z,144.20
2022-10-08T08:58:34.258Z,144.27
2022-10-08T09:01:14.171Z,144.17
2022-10-08T09:03:44.834Z,143.80
2022-10-08T09:06:15.737Z,143.60
2022-10-08T09:08:48.676Z,143.47
2022-10-08T09:11:21.527Z,143.33
2022-10-08T09:13:55.762Z,143.70
2022-10-08T09:16:25.086Z,143.83
2022-10-08T09:18:52.906Z,144.13
2022-10-08T09:21:21.167Z,143.80
2022-10-08T09:23:49.361Z,144.37
2022-10-08T09:26:21.354Z,145.20
2022-10-08T09:28:50.914Z,145.17
2022-10-08T09:31:25.898Z,145.40
2022-10-08T09:34:00.835Z,144.40
2022-10-08T09:36:36.035Z,143.53
2022-10-08T09:39:06.564Z,145.47
2022-10-08T09:41:35.712Z,144.23
2022-10-08T09:44:15.423Z,144.63
2022-10-08T09:46:43.668Z,144.67
2022-10-08T09:49:33.163Z,144.77
2022-10-08T09:52:07.932Z,144.60
2022-10-08T09:54:42.360Z,145.37
2022-10-08T09:57:16.001Z,145.07
2022-10-08T09:59:51.171Z,144.13
2022-10-08T10:02:30.748Z,144.63
2022-10-08T10:04:59.878Z,144.53
2022-10-08T10:07:38.487Z,143.97
2022-10-08T10:10:17.708Z,144.20
2022-10-08T10:12:50.142Z,144.27
2022-10-08T10:15:22.882Z,145.30
2022-10-08T10:17:54.247Z,143.63
2022-10-08T10:20:27.145Z,144.93
2022-10-08T10:22:59.338Z,144.90
2022-10-08T10:25:35.466Z,144.63
2022-10-08T10:28:09.040Z,145.77
2022-10-08T10:30:48.561Z,145.47
2022-10-08T10:33:21.424Z,145.50
2022-10-08T10:35:54.592Z,146.03
2022-10-08T10:38:27.576Z,146.17
2022-10-08T10:41:08.484Z,145.27
2022-10-08T10:43:45.053Z,146.83
2022-10-08T10:46:31.803Z,145.23
2022-10-08T10:49:01.014Z,144.97
2022-10-08T10:51:40.819Z,145.00
2022-10-08T10:54:25.419Z,146.20
2022-10-08T10:56:58.964Z,145.20
2022-10-08T10:59:44.856Z,144.87
2022-10-08T11:02:22.734Z,145.70
2022-10-08T11:05:01.959Z,144.13
2022-10-08T11:07:50.595Z,144.77
2022-10-08T11:10:35.606Z,144.57
2022-10-08T11:13:12.584Z,145.07
2022-10-08T11:15:45.817Z,144.40
2022-10-08T11:18:25.681Z,144.60
2022-10-08T11:21:05.873Z,144.20
2022-10-08T11:23:53.886Z,143.97
2022-10-08T11:26:29.886Z,144.00
2022-10-08T11:29:06.890Z,142.90
2022-10-08T11:31:43.185Z,144.30
2022-10-08T11:34:22.405Z,143.10
2022-10-08T11:36:59.115Z,143.10
2022-10-08T11:39:32.830Z,144.70
2022-10-08T11:42:09.273Z,143.30
2022-10-08T11:44:38.129Z,143.77
2022-10-08T11:47:53.035Z,143.67
2022-10-08T11:50:33.413Z,144.17
2022-10-08T11:53:14.718Z,143.13
2022-10-08T11:55:52.071Z,143.60
2022-10-08T11:58:23.731Z,143.90
2022-10-08T12:00:54.169Z,143.77
2022-10-08T12:03:27.086Z,144.53
2022-10-08T12:05:59.289Z,143.33
2022-10-08T12:08:51.295Z,143.67
2022-10-08T12:11:58.678Z,144.00
2022-10-08T12:14:33.788Z,144.13
2022-10-08T12:17:12.674Z,144.30
2022-10-08T12:20:02.760Z,143.33
2022-10-08T12:22:46.001Z,144.23
2022-10-08T12:25:30.111Z,144.33
2022-10-08T12:28:50.345Z,144.30
2022-10-08T12:31:39.274Z,144.67
2022-10-08T12:34:17.638Z,144.00
2022-10-08T12:36:55.220Z,144.07
2022-10-08T12:39:34.112Z,144.77
2022-10-08T12:42:10.439Z,144.33
2022-10-08T12:44:51.955Z,144.30
2022-10-08T12:47:32.324Z,145.33
2022-10-08T12:50:06.624Z,144.47
2022-10-08T12:52:36.287Z,144.90
2022-10-08T12:55:06.488Z,143.90
2022-10-08T12:57:36.963Z,144.40
2022-10-08T13:00:10.426Z,144.20
2022-10-08T13:02:40.207Z,144.13
2022-10-08T13:05:25.136Z,143.73
2022-10-08T13:07:53.090Z,144.50
2022-10-08T13:10:23.375Z,144.80
2022-10-08T13:13:01.538Z,145.07
2022-10-08T13:15:32.509Z,144.43
2022-10-08T13:18:00.709Z,143.90
2022-10-08T13:20:28.470Z,144.60
2022-10-08T13:22:56.259Z,144.20
2022-10-08T13:25:41.124Z,145.13
2022-10-08T13:28:13.877Z,144.97
2022-10-08T13:30:46.257Z,145.20
2022-10-08T13:33:18.950Z,144.73
2022-10-08T13:35:53.385Z,144.30
2022-10-08T13:38:25.505Z,144.83
2022-10-08T13:40:58.466Z,144.17
2022-10-08T13:43:27.148Z,144.90
2022-10-08T13:45:56.339Z,144.13
2022-10-08T13:48:24.214Z,143.97
2022-10-08T13:50:53.198Z,144.13
2022-10-08T13:53:23.699Z,143.97
2022-10-08T13:55:51.919Z,144.53
2022-10-08T13:58:21.582Z,144.00
2022-10-08T14:00:49.830Z,144.03
2022-10-08T14:03:19.254Z,143.80
2022-10-08T14:05:48.941Z,143.97
2022-10-08T14:08:19.569Z,143.43
2022-10-08T14:10:47.440Z,144.33
2022-10-08T14:13:16.642Z,144.20
2022-10-08T14:15:44.714Z,144.27
2022-10-08T14:18:12.511Z,144.07
2022-10-08T14:20:41.798Z,142.80
2022-10-08T14:23:11.475Z,143.83
2022-10-08T14:25:39.240Z,143.63
2022-10-08T14:28:07.070Z,144.90
2022-10-08T14:30:34.924Z,144.43
2022-10-08T14:33:03.516Z,142.90
2022-10-08T14:35:33.690Z,143.43
2022-10-08T14:38:02.790Z,143.17
2022-10-08T14:40:30.560Z,143.73
2022-10-08T14:42:58.705Z,143.97
2022-10-08T14:45:26.554Z,144.43
2022-10-08T14:47:54.340Z,143.67
2022-10-08T14:50:22.656Z,143.37
2022-10-08T14:52:51.228Z,143.07
2022-10-08T14:55:20.868Z,143.53
2022-10-08T14:57:48.634Z,143.47
2022-10-08T15:00:16.834Z,143.97
2022-10-08T15:02:44.817Z,142.73
2022-10-08T15:05:12.759Z,143.43
2022-10-08T15:07:40.555Z,144.03
2022-10-08T15:10:09.492Z,143.77
2022-10-08T15:12:38.816Z,143.60
2022-10-08T15:15:07.497Z,143.07
2022-10-08T15:17:35.336Z,143.27
2022-10-08T15:20:03.160Z,143.10
2022-10-08T15:22:30.928Z,143.83
2022-10-08T15:24:58.676Z,143.10
2022-10-08T15:27:26.478Z,142.93
2022-10-08T15:29:55.608Z,143.80
2022-10-08T15:32:27.175Z,143.90
2022-10-08T15:34:58.184Z,143.03
2022-10-08T15:37:25.962Z,143.17
2022-10-08T15:39:53.723Z,142.93
2022-10-08T15:42:21.464Z,143.60
2022-10-08T15:44:49.252Z,144.40
2022-10-08T15:47:18.412Z,143.47
2022-10-08T15:49:46.253Z,143.97
2022-10-08T15:52:15.744Z,144.13
2022-10-08T15:54:44.019Z,143.37
2022-10-08T15:57:13.275Z,143.00
2022-10-08T15:59:41.542Z,144.33
2022-10-08T16:02:14.120Z,143.53
2022-10-08T16:04:46.575Z,143.90
2022-10-08T16:07:14.356Z,144.07
2022-10-08T16:09:42.149Z,143.23
2022-10-08T16:12:09.922Z,143.93
2022-10-08T16:14:37.901Z,142.63
2022-10-08T16:17:05.796Z,143.47
2022-10-08T16:19:33.628Z,144.07
2022-10-08T16:22:02.746Z,144.10
2022-10-08T16:24:30.655Z,142.10
2022-10-08T16:26:58.437Z,143.00
2022-10-08T16:29:26.231Z,144.13
2022-10-08T16:31:53.992Z,143.03
2022-10-08T16:34:26.924Z,143.40
2022-10-08T16:36:55.040Z,143.17
2022-10-08T16:39:25.092Z,144.13
2022-10-08T16:41:53.040Z,142.80
2022-10-08T16:44:21.882Z,143.33
2022-10-08T16:46:51.661Z,142.53
2022-10-08T16:49:24.492Z,142.97
2022-10-08T16:51:53.969Z,143.03
2022-10-08T16:54:22.075Z,143.13
2022-10-08T16:56:51.648Z,143.43
2022-10-08T16:59:21.339Z,142.67
2022-10-08T17:01:51.764Z,143.27
2022-10-08T17:04:20.643Z,142.73
2022-10-08T17:06:49.027Z,143.20
2022-10-08T17:09:16.884Z,143.27
2022-10-08T17:11:44.731Z,142.90
2022-10-08T17:14:14.100Z,142.80
2022-10-08T17:16:43.243Z,142.47
2022-10-08T17:19:11.897Z,142.97
2022-10-08T17:21:39.872Z,142.87
2022-10-08T17:24:08.288Z,142.87
2022-10-08T17:26:36.236Z,142.37
2022-10-08T17:29:05.602Z,143.03
2022-10-08T17:31:35.690Z,143.40
2022-10-08T17:34:04.905Z,142.77
2022-10-08T17:36:34.551Z,142.73
2022-10-08T17:39:05.325Z,142.70
2022-10-08T17:41:35.320Z,142.60
2022-10-08T17:44:05.594Z,143.07
2022-10-08T17:46:36.211Z,142.67
2022-10-08T17:49:05.516Z,142.73
2022-10-08T17:51:33.854Z,142.03
2022-10-08T17:54:03.485Z,143.13
2022-10-08T17:56:31.840Z,142.83
2022-10-08T17:59:00.085Z,143.17
2022-10-08T18:01:29.628Z,142.63
2022-10-08T18:04:01.265Z,142.53
2022-10-08T18:06:30.637Z,143.17
2022-10-08T18:08:59.630Z,142.50
2022-10-08T18:11:28.765Z,142.00
2022-10-08T18:13:56.770Z,142.87
2022-10-08T18:16:25.480Z,142.63
2022-10-08T18:18:53.458Z,142.33
2022-10-08T18:21:22.989Z,143.17
2022-10-08T18:23:51.396Z,142.67
2022-10-08T18:26:20.896Z,143.17
2022-10-08T18:28:51.275Z,143.10
2022-10-08T18:31:20.909Z,143.03
2022-10-08T18:33:51.696Z,142.63
2022-10-08T18:36:22.679Z,142.67
2022-10-08T18:38:55.089Z,142.63
2022-10-08T18:41:24.516Z,142.93
2022-10-08T18:43:52.359Z,142.63
2022-10-08T18:46:21.822Z,142.23
2022-10-08T18:48:50.555Z,142.17
2022-10-08T18:51:21.295Z,142.97
2022-10-08T18:53:51.604Z,141.83
2022-10-08T18:56:21.577Z,142.43
2022-10-08T18:58:50.547Z,141.93
2022-10-08T19:01:20.738Z,142.07
2022-10-08T19:03:49.792Z,142.10
2022-10-08T19:06:19.080Z,142.13
2022-10-08T19:08:47.037Z,141.43
2022-10-08T19:11:18.514Z,142.87
2022-10-08T19:13:46.395Z,142.40
2022-10-08T19:16:15.353Z,142.17
2022-10-08T19:18:45.620Z,141.80
2022-10-08T19:21:14.598Z,142.10
2022-10-08T19:23:42.574Z,141.80
2022-10-08T19:26:10.563Z,142.00
2022-10-08T19:28:40.878Z,141.43
2022-10-08T19:31:16.882Z,141.90
2022-10-08T19:33:49.894Z,141.70
2022-10-08T19:36:17.996Z,141.57
2022-10-08T19:38:45.964Z,141.47
2022-10-08T19:41:13.740Z,141.57
2022-10-08T19:43:44.274Z,141.67
2022-10-08T19:46:12.148Z,141.97
2022-10-08T19:48:39.976Z,142.03
2022-10-08T19:51:10.010Z,141.83
2022-10-08T19:53:38.973Z,141.77
2022-10-08T19:56:09.855Z,141.43
2022-10-08T19:58:38.031Z,141.77
2022-10-08T20:01:09.544Z,141.10
2022-10-08T20:03:37.834Z,142.47
2022-10-08T20:06:08.010Z,141.63
2022-10-08T20:08:36.436Z,141.80
2022-10-08T20:11:05.101Z,142.53
2022-10-08T20:13:33.233Z,142.60
2022-10-08T20:16:03.783Z,142.43
2022-10-08T20:18:33.124Z,142.70
2022-10-08T20:21:02.223Z,142.80
2022-10-08T20:23:30.082Z,143.07
2022-10-08T20:26:08.832Z,142.53
2022-10-08T20:28:36.722Z,142.77
2022-10-08T20:31:12.694Z,142.47
2022-10-08T20:33:42.243Z,143.03
2022-10-08T20:36:10.736Z,142.77
2022-10-08T20:38:38.675Z,143.00
2022-10-08T20:41:07.606Z,143.30
2022-10-08T20:43:37.296Z,143.33
2022-10-08T20:46:06.858Z,143.13
2022-10-08T20:48:34.863Z,143.90
2022-10-08T20:51:04.639Z,142.83
2022-10-08T20:53:33.094Z,142.97
2022-10-08T20:56:04.168Z,142.77
2022-10-08T20:58:32.276Z,143.00
2022-10-08T21:01:05.443Z,142.53
2022-10-08T21:03:35.987Z,143.27
2022-10-08T21:06:06.063Z,143.07
2022-10-08T21:08:36.537Z,142.97
2022-10-08T21:11:05.420Z,143.00
2022-10-08T21:13:34.351Z,142.77
2022-10-08T21:16:03.492Z,143.63
2022-10-08T21:18:31.505Z,142.57
2022-10-08T21:21:02.691Z,142.57
2022-10-08T21:23:32.055Z,142.63
2022-10-08T21:26:11.360Z,142.87
2022-10-08T21:28:39.518Z,142.70
2022-10-08T21:31:08.803Z,142.83
2022-10-08T21:33:37.189Z,143.23
2022-10-08T21:36:05.846Z,143.33
2022-10-08T21:38:35.251Z,142.53
2022-10-08T21:41:11.091Z,143.00
2022-10-08T21:43:39.443Z,142.07
2022-10-08T21:46:07.864Z,142.63
2022-10-08T21:48:35.750Z,142.47
2022-10-08T21:51:05.739Z,143.00
2022-10-08T21:53:37.811Z,142.93
2022-10-08T21:56:07.632Z,142.60
2022-10-08T21:58:38.378Z,142.60
2022-10-08T22:01:07.164Z,142.73
2022-10-08T22:03:35.598Z,142.83
2022-10-08T22:06:05.203Z,143.50
2022-10-08T22:08:33.095Z,142.73
2022-10-08T22:11:04.989Z,143.03
2022-10-08T22:13:32.972Z,143.20
2022-10-08T22:16:02.838Z,142.93
2022-10-08T22:18:32.614Z,142.80
2022-10-08T22:21:02.304Z,143.10
2022-10-08T22:23:30.333Z,142.77
2022-10-08T22:25:59.829Z,143.10
2022-10-08T22:28:31.417Z,143.33
2022-10-08T22:31:00.608Z,142.33
2022-10-08T22:33:28.963Z,142.73
2022-10-08T22:36:01.423Z,143.60
2022-10-08T22:38:29.283Z,142.50
2022-10-08T22:41:02.547Z,143.10
2022-10-08T22:43:31.795Z,143.77
2022-10-08T22:46:02.890Z,142.83
2022-10-08T22:48:30.760Z,142.30
2022-10-08T22:51:02.645Z,142.90
2022-10-08T22:53:30.819Z,143.07
2022-10-08T22:55:59.120Z,142.70
2022-10-08T22:58:26.919Z,142.57
2022-10-08T23:01:00.057Z,142.40
2022-10-08T23:03:28.172Z,143.03
2022-10-08T23:06:06.878Z,142.20
2022-10-08T23:08:35.403Z,142.33
2022-10-08T23:11:03.897Z,143.00
2022-10-08T23:13:32.324Z,142.30
2022-10-08T23:16:03.356Z,143.27
2022-10-08T23:18:31.588Z,143.63
2022-10-08T23:21:02.269Z,142.57
2022-10-08T23:23:30.818Z,142.43
2022-10-08T23:26:00.570Z,142.97
2022-10-08T23:28:29.314Z,143.07
2022-10-08T23:31:06.052Z,143.13
2022-10-08T23:33:33.998Z,142.37
2022-10-08T23:36:01.760Z,143.10
2022-10-08T23:38:29.530Z,142.87
2022-10-08T23:41:00.833Z,142.83
2022-10-08T23:43:29.091Z,142.87
2022-10-08T23:45:56.968Z,142.40
2022-10-08T23:48:26.154Z,142.77
2022-10-08T23:50:54.400Z,142.33
2022-10-08T23:53:23.082Z,142.00
2022-10-08T23:55:51.269Z,142.43
2022-10-08T23:58:19.447Z,142.53
